Time;durP1;ratioP1;P1;durP2;ratioP2;P2;SDS_P1;SDS_P2;PMS_P1;PMS_P2;Temp;Humidity;BMP_temperature;BMP_pressure;BME280_temperature;BME280_humidity;BME280_pressure;Samples;Min_cycle;Max_cycle;Signal;HPM_P1;HPM_P2
2022/06/18 00:00:57;;;;;;;4.77;3.03;;;;;;;;;;5034806;28;20569;-66
2022/06/18 00:03:24;;;;;;;5.43;2.80;;;;;;;;;;5034897;28;20647;-66
2022/06/18 00:05:51;;;;;;;3.70;2.53;;;;;;;;;;5035150;28;20197;-66
2022/06/18 00:08:24;;;;;;;4.27;2.93;;;;;;;;;;5034626;28;20730;-66
2022/06/18 00:10:53;;;;;;;3.47;3.10;;;;;;;;;;5017010;28;20182;-66
2022/06/18 00:13:41;;;;;;;3.87;2.60;;;;;;;;;;5016347;28;20183;-66
2022/06/18 00:16:29;;;;;;;5.87;2.40;;;;;;;;;;5016783;28;20182;-66
2022/06/18 00:18:55;;;;;;;5.20;2.80;;;;;;;;;;5016592;28;20683;-66
2022/06/18 00:21:23;;;;;;;6.40;3.10;;;;;;;;;;5034833;28;20182;-66
2022/06/18 00:23:49;;;;;;;5.33;2.90;;;;;;;;;;5016551;28;20207;-66
2022/06/18 00:26:15;;;;;;;4.67;2.80;;;;;;;;;;5034920;28;20172;-66
2022/06/18 00:28:41;;;;;;;4.30;2.50;;;;;;;;;;5016424;28;20218;-66
2022/06/18 00:31:07;;;;;;;3.47;2.87;;;;;;;;;;5016491;28;20184;-66
2022/06/18 00:33:39;;;;;;;2.77;2.43;;;;;;;;;;5016504;28;20187;-66
2022/06/18 00:36:07;;;;;;;3.97;2.90;;;;;;;;;;5034785;28;20221;-66
2022/06/18 00:38:35;;;;;;;3.90;3.03;;;;;;;;;;5033876;28;20217;-65
2022/06/18 00:41:01;;;;;;;3.27;2.23;;;;;;;;;;5016264;28;20183;-66
2022/06/18 00:43:30;;;;;;;5.63;2.80;;;;;;;;;;5034198;28;20210;-67
2022/06/18 00:46:00;;;;;;;6.10;2.70;;;;;;;;;;5016168;28;20182;-67
2022/06/18 00:48:45;;;;;;;5.53;2.73;;;;;;;;;;5033878;28;20196;-66
2022/06/18 00:51:20;;;;;;;4.60;2.80;;;;;;;;;;5016069;28;20182;-67
2022/06/18 00:53:52;;;;;;;7.43;2.83;;;;;;;;;;5033893;28;20217;-66
2022/06/18 00:56:21;;;;;;;3.63;2.77;;;;;;;;;;5033909;28;20253;-67
2022/06/18 00:58:47;;;;;;;5.27;2.73;;;;;;;;;;5015834;28;20211;-67
2022/06/18 01:01:22;;;;;;;4.37;2.73;;;;;;;;;;5033970;28;20187;-65
2022/06/18 01:03:49;;;;;;;3.67;2.70;;;;;;;;;;5033918;28;20558;-67
2022/06/18 01:06:23;;;;;;;5.13;2.80;;;;;;;;;;5033644;28;20175;-66
2022/06/18 01:08:51;;;;;;;5.43;3.10;;;;;;;;;;5033485;28;20666;-67
2022/06/18 01:11:23;;;;;;;3.80;2.77;;;;;;;;;;5033395;28;20209;-66
2022/06/18 01:13:49;;;;;;;9.97;3.00;;;;;;;;;;5033760;28;20194;-67
2022/06/18 01:16:18;;;;;;;5.13;2.80;;;;;;;;;;5033492;28;20179;-66
2022/06/18 01:18:45;;;;;;;3.37;2.80;;;;;;;;;;5033353;28;20199;-67
2022/06/18 01:21:17;;;;;;;3.97;2.80;;;;;;;;;;5015637;28;20241;-67
2022/06/18 01:23:47;;;;;;;4.43;2.60;;;;;;;;;;5032583;28;20199;-67
2022/06/18 01:26:13;;;;;;;4.10;2.77;;;;;;;;;;5033322;28;20175;-67
2022/06/18 01:28:39;;;;;;;4.20;2.87;;;;;;;;;;5033254;28;20278;-67
2022/06/18 01:31:05;;;;;;;4.73;3.00;;;;;;;;;;5033975;28;20190;-67
2022/06/18 01:33:32;;;;;;;4.07;2.90;;;;;;;;;;5015423;28;20190;-67
2022/06/18 01:35:58;;;;;;;4.87;3.20;;;;;;;;;;5015641;28;20279;-67
2022/06/18 01:38:24;;;;;;;6.23;2.73;;;;;;;;;;5032999;28;20210;-66
2022/06/18 01:40:54;;;;;;;3.37;2.77;;;;;;;;;;5015381;28;20214;-66
2022/06/18 01:43:21;;;;;;;6.53;3.27;;;;;;;;;;5032874;28;20210;-67
2022/06/18 01:45:51;;;;;;;5.33;3.00;;;;;;;;;;5015401;28;20187;-67
2022/06/18 01:48:29;;;;;;;4.70;2.80;;;;;;;;;;5032932;28;20230;-67
2022/06/18 01:50:57;;;;;;;5.57;2.83;;;;;;;;;;5033098;28;20179;-67
2022/06/18 01:53:26;;;;;;;3.37;2.70;;;;;;;;;;5033089;28;20179;-67
2022/06/18 01:55:54;;;;;;;6.23;2.90;;;;;;;;;;5033389;28;20179;-67
2022/06/18 01:58:24;;;;;;;5.60;2.90;;;;;;;;;;5033586;28;20253;-68
2022/06/18 02:00:52;;;;;;;3.90;2.83;;;;;;;;;;5033188;28;20179;-66
2022/06/18 02:03:18;;;;;;;4.40;2.80;;;;;;;;;;5033384;28;20205;-66
2022/06/18 02:05:44;;;;;;;4.60;2.80;;;;;;;;;;5033348;28;20179;-67
2022/06/18 02:08:13;;;;;;;4.13;2.87;;;;;;;;;;5032894;28;20230;-66
2022/06/18 02:10:44;;;;;;;8.10;3.07;;;;;;;;;;5033327;28;20185;-67
2022/06/18 02:13:11;;;;;;;4.57;3.20;;;;;;;;;;5015163;28;20215;-66
2022/06/18 02:15:39;;;;;;;4.03;3.00;;;;;;;;;;5015327;28;20183;-67
2022/06/18 02:18:07;;;;;;;8.73;3.00;;;;;;;;;;5032901;28;20607;-66
2022/06/18 02:20:36;;;;;;;6.03;3.63;;;;;;;;;;5015167;28;20187;-67
2022/06/18 02:23:03;;;;;;;3.47;2.50;;;;;;;;;;5032954;28;20281;-67
2022/06/18 02:25:30;;;;;;;5.73;2.70;;;;;;;;;;5032834;28;20180;-67
2022/06/18 02:27:57;;;;;;;4.40;2.87;;;;;;;;;;5015250;28;20201;-67
2022/06/18 02:30:25;;;;;;;3.63;2.83;;;;;;;;;;5015105;28;20175;-67
2022/06/18 02:32:56;;;;;;;4.50;2.87;;;;;;;;;;5032663;28;20543;-66
2022/06/18 02:35:22;;;;;;;3.27;2.87;;;;;;;;;;5015833;28;20175;-67
2022/06/18 02:37:48;;;;;;;3.83;2.80;;;;;;;;;;5036356;28;20218;-67
2022/06/18 02:40:17;;;;;;;3.80;2.90;;;;;;;;;;5018623;28;20182;-67
2022/06/18 02:42:43;;;;;;;6.53;3.40;;;;;;;;;;5036242;28;20592;-66
2022/06/18 02:45:09;;;;;;;5.93;3.23;;;;;;;;;;5036285;28;20179;-67
2022/06/18 02:47:35;;;;;;;3.20;2.90;;;;;;;;;;5036077;28;20206;-67
2022/06/18 02:50:05;;;;;;;3.57;2.90;;;;;;;;;;5018867;28;20274;-67
2022/06/18 02:52:41;;;;;;;4.37;2.90;;;;;;;;;;5018325;28;20614;-67
2022/06/18 02:55:17;;;;;;;5.97;3.10;;;;;;;;;;5018322;28;20265;-66
2022/06/18 02:57:43;;;;;;;5.07;2.80;;;;;;;;;;5035889;28;20721;-67
2022/06/18 03:00:13;;;;;;;3.60;3.07;;;;;;;;;;5018140;28;20278;-67
2022/06/18 03:02:39;;;;;;;3.57;2.60;;;;;;;;;;5018105;28;20594;-67
2022/06/18 03:05:05;;;;;;;3.60;2.80;;;;;;;;;;5036094;28;20175;-67
2022/06/18 03:07:31;;;;;;;4.77;2.63;;;;;;;;;;5035594;28;20222;-67
2022/06/18 03:12:42;;;;;;;5.60;3.20;;;;;;;;;;5036011;28;20535;-67
2022/06/18 03:15:08;;;;;;;4.60;2.90;;;;;;;;;;5035875;28;20183;-67
2022/06/18 03:17:34;;;;;;;3.57;2.83;;;;;;;;;;5035500;28;20211;-67
2022/06/18 03:20:02;;;;;;;7.07;2.90;;;;;;;;;;5017673;28;20178;-67
2022/06/18 03:22:28;;;;;;;4.00;3.03;;;;;;;;;;5035608;28;20175;-67
2022/06/18 03:24:54;;;;;;;4.43;2.97;;;;;;;;;;5035414;28;20206;-67
2022/06/18 03:27:20;;;;;;;5.00;2.60;;;;;;;;;;5017534;28;20647;-66
2022/06/18 03:29:46;;;;;;;4.60;3.03;;;;;;;;;;5035402;28;20674;-67
2022/06/18 03:32:12;;;;;;;7.40;3.43;;;;;;;;;;5035661;28;20175;-67
2022/06/18 03:34:38;;;;;;;4.47;2.53;;;;;;;;;;5035269;28;20187;-66
2022/06/18 03:37:04;;;;;;;3.90;2.73;;;;;;;;;;5017727;28;20195;-67
2022/06/18 03:39:31;;;;;;;8.10;3.67;;;;;;;;;;5035072;28;20306;-66
2022/06/18 03:41:58;;;;;;;4.17;2.90;;;;;;;;;;5017278;28;20652;-66
2022/06/18 03:44:25;;;;;;;3.30;3.00;;;;;;;;;;5035061;28;20207;-66
2022/06/18 03:46:51;;;;;;;4.80;3.00;;;;;;;;;;5016494;28;20535;-66
2022/06/18 03:49:24;;;;;;;5.83;3.30;;;;;;;;;;5034965;28;20191;-66
2022/06/18 03:51:50;;;;;;;5.50;2.97;;;;;;;;;;5017266;28;20175;-67
2022/06/18 03:54:16;;;;;;;6.60;3.00;;;;;;;;;;5017104;28;20179;-66
2022/06/18 03:56:42;;;;;;;4.77;2.87;;;;;;;;;;5034734;28;20183;-66
2022/06/18 03:59:09;;;;;;;5.43;2.90;;;;;;;;;;5034929;28;20246;-68
2022/06/18 04:01:40;;;;;;;4.17;2.70;;;;;;;;;;5034718;28;20218;-68
2022/06/18 04:04:06;;;;;;;5.37;3.23;;;;;;;;;;5034605;28;20221;-66
2022/06/18 04:06:32;;;;;;;3.07;2.77;;;;;;;;;;5034875;28;20690;-66
2022/06/18 04:08:58;;;;;;;5.47;3.20;;;;;;;;;;5034573;28;20238;-66
2022/06/18 04:11:24;;;;;;;3.70;2.80;;;;;;;;;;5016934;28;20236;-66
2022/06/18 04:13:50;;;;;;;3.83;2.90;;;;;;;;;;5034524;28;20186;-66
2022/06/18 04:16:16;;;;;;;5.57;2.83;;;;;;;;;;5034714;28;20175;-66
2022/06/18 04:18:43;;;;;;;5.00;2.93;;;;;;;;;;5034513;28;20201;-68
2022/06/18 04:21:09;;;;;;;5.47;3.10;;;;;;;;;;5034422;28;20615;-66
2022/06/18 04:23:35;;;;;;;4.33;3.00;;;;;;;;;;5034290;28;20274;-66
2022/06/18 04:26:01;;;;;;;5.60;3.20;;;;;;;;;;5016672;28;20183;-67
2022/06/18 04:28:27;;;;;;;3.17;2.77;;;;;;;;;;5034574;28;20658;-66
2022/06/18 04:30:53;;;;;;;4.43;2.80;;;;;;;;;;5034239;28;20249;-67
2022/06/18 04:33:19;;;;;;;5.23;3.00;;;;;;;;;;5034240;28;20211;-66
2022/06/18 04:35:45;;;;;;;3.30;2.70;;;;;;;;;;5016843;28;20645;-66
2022/06/18 04:38:12;;;;;;;4.53;3.20;;;;;;;;;;5033959;28;20223;-66
2022/06/18 04:40:39;;;;;;;8.30;2.87;;;;;;;;;;5034652;28;20183;-66
2022/06/18 04:43:06;;;;;;;4.73;2.47;;;;;;;;;;5016104;28;20317;-67
2022/06/18 04:45:32;;;;;;;6.23;2.80;;;;;;;;;;5034616;28;20179;-66
2022/06/18 04:47:58;;;;;;;4.00;2.70;;;;;;;;;;5033974;28;20268;-67
2022/06/18 04:50:26;;;;;;;3.80;2.67;;;;;;;;;;5016094;28;20194;-66
2022/06/18 04:52:52;;;;;;;7.07;3.13;;;;;;;;;;5033797;28;20182;-66
2022/06/18 04:55:18;;;;;;;5.33;2.70;;;;;;;;;;5015928;28;20179;-67
2022/06/18 04:57:44;;;;;;;5.47;2.93;;;;;;;;;;5015943;28;20298;-66
2022/06/18 05:00:11;;;;;;;3.20;2.70;;;;;;;;;;5033901;28;20226;-66
2022/06/18 05:02:37;;;;;;;3.33;2.80;;;;;;;;;;5033752;28;20241;-67
2022/06/18 05:05:07;;;;;;;4.50;2.87;;;;;;;;;;5033620;28;20687;-67
2022/06/18 05:07:33;;;;;;;4.10;3.10;;;;;;;;;;5033496;28;20202;-67
2022/06/18 05:09:59;;;;;;;3.47;2.80;;;;;;;;;;5033550;28;20179;-66
2022/06/18 05:12:25;;;;;;;7.27;3.07;;;;;;;;;;5034156;28;20174;-67
2022/06/18 05:14:51;;;;;;;5.47;2.70;;;;;;;;;;5015858;28;20643;-67
2022/06/18 05:17:28;;;;;;;10.90;3.17;;;;;;;;;;5015829;28;20183;-67
2022/06/18 05:19:54;;;;;;;4.47;2.90;;;;;;;;;;5015808;28;20638;-67
2022/06/18 05:22:20;;;;;;;5.83;2.73;;;;;;;;;;5015907;28;20179;-67
2022/06/18 05:24:46;;;;;;;4.00;2.97;;;;;;;;;;5016013;28;20214;-67
2022/06/18 05:27:28;;;;;;;6.67;3.50;;;;;;;;;;5034617;28;20179;-66
2022/06/18 05:29:55;;;;;;;3.13;2.83;;;;;;;;;;5015814;28;20206;-67
2022/06/18 05:32:21;;;;;;;6.73;2.90;;;;;;;;;;5015658;28;20557;-66
2022/06/18 05:34:47;;;;;;;4.50;3.10;;;;;;;;;;5033278;28;20183;-67
2022/06/18 05:37:20;;;;;;;3.43;2.67;;;;;;;;;;5033163;28;20644;-67
2022/06/18 05:39:46;;;;;;;6.67;3.27;;;;;;;;;;5015552;28;20182;-68
2022/06/18 05:42:12;;;;;;;5.60;2.77;;;;;;;;;;5033935;28;20179;-67
2022/06/18 05:44:38;;;;;;;3.87;2.93;;;;;;;;;;5033743;28;20207;-66
2022/06/18 05:47:20;;;;;;;7.63;3.20;;;;;;;;;;5015351;28;20179;-67
2022/06/18 05:49:46;;;;;;;5.03;3.07;;;;;;;;;;5033436;28;20167;-67
2022/06/18 05:52:12;;;;;;;5.83;3.00;;;;;;;;;;5033229;28;20187;-67
2022/06/18 05:54:38;;;;;;;6.07;3.07;;;;;;;;;;5033130;28;20178;-67
2022/06/18 05:57:04;;;;;;;4.93;3.13;;;;;;;;;;5015439;28;20282;-67
2022/06/18 05:59:30;;;;;;;3.20;2.90;;;;;;;;;;5033175;28;20321;-66
2022/06/18 06:01:56;;;;;;;3.77;3.07;;;;;;;;;;5033694;28;20183;-67
2022/06/18 06:04:23;;;;;;;4.47;2.90;;;;;;;;;;5033048;28;20218;-67
2022/06/18 06:06:49;;;;;;;6.13;3.00;;;;;;;;;;5033797;28;20654;-67
2022/06/18 06:11:28;;;;;;;3.57;3.00;;;;;;;;;;5033203;28;20191;-67
2022/06/18 06:12:01;;;;;;;5.30;3.00;;;;;;;;;;5036619;28;20194;-67
2022/06/18 06:14:27;;;;;;;3.67;2.60;;;;;;;;;;5037062;28;20167;-67
2022/06/18 06:16:53;;;;;;;5.27;2.97;;;;;;;;;;5019878;28;20183;-67
2022/06/18 06:19:19;;;;;;;3.77;3.00;;;;;;;;;;5019291;28;20199;-68
2022/06/18 06:21:45;;;;;;;4.53;2.97;;;;;;;;;;5077462;23;20685;-66
2022/06/18 06:24:11;;;;;;;4.90;2.70;;;;;;;;;;5077848;28;20200;-66
2022/06/18 06:26:37;;;;;;;4.20;3.03;;;;;;;;;;5078313;28;20634;-69
2022/06/18 06:29:03;;;;;;;6.03;3.07;;;;;;;;;;5078117;28;20193;-67
2022/06/18 06:31:29;;;;;;;3.93;2.90;;;;;;;;;;5078434;28;20185;-67
2022/06/18 06:33:55;;;;;;;3.10;2.80;;;;;;;;;;5077746;28;20645;-66
2022/06/18 06:36:21;;;;;;;3.13;2.80;;;;;;;;;;5077801;28;20675;-68
2022/06/18 06:38:47;;;;;;;5.07;2.70;;;;;;;;;;5059037;28;20664;-66
2022/06/18 06:41:16;;;;;;;4.77;3.33;;;;;;;;;;5058895;28;20217;-67
2022/06/18 06:43:42;;;;;;;4.43;3.40;;;;;;;;;;5077530;28;20200;-67
2022/06/18 06:46:12;;;;;;;4.13;3.30;;;;;;;;;;5059755;28;20174;-68
2022/06/18 06:48:38;;;;;;;4.17;3.50;;;;;;;;;;5077089;28;20230;-67
2022/06/18 06:51:05;;;;;;;7.67;3.47;;;;;;;;;;5058900;28;20205;-66
2022/06/18 06:53:31;;;;;;;3.70;2.87;;;;;;;;;;5058630;28;20173;-67
2022/06/18 06:58:41;;;;;;;4.10;3.53;;;;;;;;;;5077371;28;20173;-66
2022/06/18 07:01:07;;;;;;;4.60;3.23;;;;;;;;;;5076699;28;20202;-67
2022/06/18 07:03:34;;;;;;;3.50;3.20;;;;;;;;;;5076903;28;20289;-68
2022/06/18 07:06:01;;;;;;;4.07;2.93;;;;;;;;;;5076996;28;20177;-68
2022/06/18 07:08:27;;;;;;;3.87;3.00;;;;;;;;;;5059067;28;20178;-69
2022/06/18 07:10:53;;;;;;;7.20;3.30;;;;;;;;;;5076727;28;20663;-67
2022/06/18 07:13:20;;;;;;;4.93;3.50;;;;;;;;;;5076743;28;20240;-67
2022/06/18 07:15:46;;;;;;;3.97;3.57;;;;;;;;;;5059053;28;20223;-67
2022/06/18 07:18:15;;;;;;;5.70;3.30;;;;;;;;;;5058767;28;20177;-66
2022/06/18 07:20:42;;;;;;;5.83;3.67;;;;;;;;;;5058388;28;20189;-67
2022/06/18 07:23:08;;;;;;;4.40;4.00;;;;;;;;;;5074490;28;20610;-67
2022/06/18 07:25:34;;;;;;;4.17;3.70;;;;;;;;;;5057784;28;20174;-67
2022/06/18 07:28:00;;;;;;;4.97;3.40;;;;;;;;;;5057809;28;20331;-67
2022/06/18 07:30:26;;;;;;;5.87;3.50;;;;;;;;;;5075718;28;20662;-68
2022/06/18 07:32:52;;;;;;;5.27;3.17;;;;;;;;;;5075569;28;20194;-68
2022/06/18 07:35:20;;;;;;;4.23;3.60;;;;;;;;;;5075978;28;20235;-69
2022/06/18 07:37:46;;;;;;;5.13;3.70;;;;;;;;;;5075772;28;20178;-68
2022/06/18 07:40:13;;;;;;;6.67;3.57;;;;;;;;;;5076205;28;20253;-67
2022/06/18 07:42:39;;;;;;;6.03;4.47;;;;;;;;;;5075810;28;20189;-68
2022/06/18 07:45:06;;;;;;;3.90;3.23;;;;;;;;;;5075659;28;20235;-67
2022/06/18 07:47:32;;;;;;;5.60;3.33;;;;;;;;;;5057504;28;20174;-67
2022/06/18 07:49:58;;;;;;;6.87;3.40;;;;;;;;;;5057301;28;20231;-67
2022/06/18 07:52:24;;;;;;;6.50;4.40;;;;;;;;;;5075096;28;20281;-67
2022/06/18 07:54:50;;;;;;;5.57;3.57;;;;;;;;;;5075299;28;20290;-67
2022/06/18 07:57:16;;;;;;;8.30;3.60;;;;;;;;;;5076011;28;20204;-69
2022/06/18 07:59:42;;;;;;;3.27;2.90;;;;;;;;;;5057270;28;20316;-67
2022/06/18 08:02:09;;;;;;;4.17;3.63;;;;;;;;;;5057333;28;20230;-67
2022/06/18 08:04:35;;;;;;;6.67;3.40;;;;;;;;;;5075203;28;20237;-66
2022/06/18 08:07:01;;;;;;;6.37;4.13;;;;;;;;;;5057334;28;20177;-68
2022/06/18 08:09:27;;;;;;;3.70;3.23;;;;;;;;;;5075120;28;20186;-67
2022/06/18 08:11:53;;;;;;;5.87;3.50;;;;;;;;;;5056961;28;20707;-67
2022/06/18 08:14:19;;;;;;;7.87;3.80;;;;;;;;;;5074790;28;20641;-67
2022/06/18 08:16:45;;;;;;;4.73;3.70;;;;;;;;;;5074895;28;20181;-68
2022/06/18 08:19:12;;;;;;;8.70;3.63;;;;;;;;;;5056829;28;20613;-67
2022/06/18 08:21:40;;;;;;;5.43;3.40;;;;;;;;;;5074554;28;20218;-67
2022/06/18 08:24:09;;;;;;;7.50;3.83;;;;;;;;;;5074611;28;20202;-67
2022/06/18 08:26:35;;;;;;;4.10;3.67;;;;;;;;;;5075042;28;20220;-67
2022/06/18 08:29:02;;;;;;;8.37;3.87;;;;;;;;;;5075051;28;20182;-67
2022/06/18 08:31:28;;;;;;;4.40;3.40;;;;;;;;;;5074424;28;20223;-67
2022/06/18 08:33:55;;;;;;;7.53;3.63;;;;;;;;;;5074134;28;20178;-67
2022/06/18 08:36:21;;;;;;;5.90;3.53;;;;;;;;;;5074518;28;20178;-67
2022/06/18 08:38:48;;;;;;;7.83;3.70;;;;;;;;;;5074479;28;20182;-67
2022/06/18 08:41:21;;;;;;;8.93;4.30;;;;;;;;;;5056641;28;20198;-67
2022/06/18 08:43:50;;;;;;;5.43;3.53;;;;;;;;;;5074205;28;20649;-67
2022/06/18 08:46:25;;;;;;;3.90;3.30;;;;;;;;;;5074073;28;20194;-67
2022/06/18 08:49:10;;;;;;;5.43;3.60;;;;;;;;;;5074264;28;20184;-66
2022/06/18 08:51:42;;;;;;;9.20;4.17;;;;;;;;;;5074269;28;20205;-66
2022/06/18 08:54:12;;;;;;;5.47;3.53;;;;;;;;;;5074392;28;20166;-67
2022/06/18 08:56:43;;;;;;;7.43;3.80;;;;;;;;;;5074616;28;20722;-66
2022/06/18 08:59:16;;;;;;;6.10;3.53;;;;;;;;;;5074265;28;20168;-68
2022/06/18 09:01:49;;;;;;;7.27;4.13;;;;;;;;;;5074192;28;20224;-66
2022/06/18 09:04:26;;;;;;;6.07;3.90;;;;;;;;;;5074153;28;20205;-67
2022/06/18 09:07:14;;;;;;;5.97;4.03;;;;;;;;;;5055952;28;20162;-67
2022/06/18 09:09:40;;;;;;;6.78;5.00;;;;;;;;;;5072611;28;20376;-67
2022/06/18 09:12:11;;;;;;;6.93;4.43;;;;;;;;;;5072474;28;20395;-67
2022/06/18 09:14:49;;;;;;;9.77;4.13;;;;;;;;;;5054553;28;20775;-67
2022/06/18 09:17:19;;;;;;;8.60;4.32;;;;;;;;;;5055969;28;20662;-66
2022/06/18 09:19:47;;;;;;;6.33;4.00;;;;;;;;;;5073753;28;20645;-66
2022/06/18 09:22:18;;;;;;;8.73;4.75;;;;;;;;;;5074114;28;20218;-67
2022/06/18 09:24:46;;;;;;;7.37;4.50;;;;;;;;;;5055917;28;20212;-67
2022/06/18 09:27:25;;;;;;;11.90;4.13;;;;;;;;;;5074392;28;20243;-66
2022/06/18 09:30:02;;;;;;;9.37;3.93;;;;;;;;;;5073670;28;20193;-67
2022/06/18 09:32:35;;;;;;;6.60;4.40;;;;;;;;;;5073763;28;20193;-67
2022/06/18 09:35:11;;;;;;;6.70;3.70;;;;;;;;;;5074200;28;20178;-66
2022/06/18 09:37:42;;;;;;;8.00;4.03;;;;;;;;;;5055727;28;20177;-67
2022/06/18 09:40:16;;;;;;;7.10;3.70;;;;;;;;;;5073632;28;20219;-68
2022/06/18 09:42:46;;;;;;;8.97;3.97;;;;;;;;;;5055850;28;20689;-67
2022/06/18 09:45:17;;;;;;;7.67;3.80;;;;;;;;;;5056607;28;20602;-67
2022/06/18 09:47:46;;;;;;;6.33;4.27;;;;;;;;;;5077821;28;20258;-66
2022/06/18 09:50:17;;;;;;;4.97;4.15;;;;;;;;;;5060183;28;20665;-67
2022/06/18 09:52:44;;;;;;;8.83;3.60;;;;;;;;;;5077971;28;20205;-68
2022/06/18 09:55:13;;;;;;;7.45;3.75;;;;;;;;;;5059412;28;20178;-68
2022/06/18 09:57:41;;;;;;;7.43;3.75;;;;;;;;;;5077303;28;20177;-67
2022/06/18 10:00:07;;;;;;;8.20;3.80;;;;;;;;;;5077745;28;20186;-67
2022/06/18 10:02:34;;;;;;;10.13;4.03;;;;;;;;;;5077048;28;20220;-68
2022/06/18 10:07:48;;;;;;;4.55;3.22;;;;;;;;;;5077620;28;20240;-68
2022/06/18 10:10:22;;;;;;;4.60;3.20;;;;;;;;;;5077319;28;20254;-67
2022/06/18 10:12:52;;;;;;;7.30;4.40;;;;;;;;;;5058936;28;20283;-67
2022/06/18 10:15:19;;;;;;;7.30;3.73;;;;;;;;;;5076926;28;20159;-67
2022/06/18 10:17:58;;;;;;;12.55;4.15;;;;;;;;;;5076752;28;20185;-67
2022/06/18 10:20:33;;;;;;;6.82;3.80;;;;;;;;;;5058809;28;20185;-67
2022/06/18 10:23:03;;;;;;;6.78;3.78;;;;;;;;;;5076381;28;20217;-67
2022/06/18 10:25:43;;;;;;;8.75;3.58;;;;;;;;;;5058730;28;20174;-68
2022/06/18 10:28:28;;;;;;;4.50;3.23;;;;;;;;;;5077157;28;20195;-67
2022/06/18 10:30:54;;;;;;;6.78;3.10;;;;;;;;;;5076302;28;20178;-67
2022/06/18 10:33:23;;;;;;;8.25;3.60;;;;;;;;;;5058464;28;20184;-67
2022/06/18 10:35:57;;;;;;;8.95;3.90;;;;;;;;;;5058438;28;20178;-66
2022/06/18 10:38:43;;;;;;;10.68;3.97;;;;;;;;;;5076512;28;20169;-66
2022/06/18 10:41:17;;;;;;;9.57;3.65;;;;;;;;;;5076235;28;20224;-68
2022/06/18 10:43:57;;;;;;;6.03;3.63;;;;;;;;;;5076579;28;20192;-66
2022/06/18 10:46:23;;;;;;;6.88;3.30;;;;;;;;;;5076216;28;20158;-65
2022/06/18 10:49:09;;;;;;;6.40;3.10;;;;;;;;;;5076312;28;20174;-65
2022/06/18 10:51:46;;;;;;;6.95;3.92;;;;;;;;;;5076490;28;20212;-65
2022/06/18 10:54:13;;;;;;;9.70;3.80;;;;;;;;;;5076391;28;20173;-65
2022/06/18 10:56:52;;;;;;;8.52;3.45;;;;;;;;;;5076138;28;20645;-66
2022/06/18 10:59:35;;;;;;;10.93;3.40;;;;;;;;;;5076477;28;20613;-66
2022/06/18 11:02:16;;;;;;;8.10;3.70;;;;;;;;;;5076404;28;20202;-65
2022/06/18 11:04:50;;;;;;;5.80;2.95;;;;;;;;;;5058416;28;20351;-67
2022/06/18 11:07:20;;;;;;;5.05;3.30;;;;;;;;;;5076103;28;20165;-65
2022/06/18 11:09:46;;;;;;;13.10;3.47;;;;;;;;;;5058226;28;20162;-65
2022/06/18 11:12:23;;;;;;;11.02;3.85;;;;;;;;;;5076161;28;20733;-67
2022/06/18 11:14:49;;;;;;;5.68;3.35;;;;;;;;;;5076925;28;20235;-65
2022/06/18 11:17:43;;;;;;;8.23;3.65;;;;;;;;;;5077875;28;20656;-67
2022/06/18 11:20:13;;;;;;;8.85;3.95;;;;;;;;;;5056379;28;20567;-66
2022/06/18 11:22:39;;;;;;;7.55;3.70;;;;;;;;;;5077642;28;20212;-65
2022/06/18 11:25:20;;;;;;;12.48;4.45;;;;;;;;;;5076551;28;20662;-67
2022/06/18 11:27:47;;;;;;;8.60;4.20;;;;;;;;;;5057589;28;20173;-68
2022/06/18 11:30:34;;;;;;;10.23;4.30;;;;;;;;;;5075708;28;20252;-66
2022/06/18 11:33:01;;;;;;;10.70;3.88;;;;;;;;;;5075455;28;20274;-65
2022/06/18 11:35:30;;;;;;;6.72;3.42;;;;;;;;;;5075450;28;20178;-66
2022/06/18 11:37:59;;;;;;;9.40;3.83;;;;;;;;;;5075574;28;20174;-66
2022/06/18 11:40:25;;;;;;;7.63;3.45;;;;;;;;;;5057634;28;20197;-66
2022/06/18 11:42:53;;;;;;;8.07;3.55;;;;;;;;;;5075378;28;20190;-66
2022/06/18 11:45:38;;;;;;;6.15;3.72;;;;;;;;;;5057417;28;20198;-66
2022/06/18 11:48:04;;;;;;;10.45;3.90;;;;;;;;;;5075404;28;20196;-66
2022/06/18 11:50:41;;;;;;;7.10;3.70;;;;;;;;;;5075334;28;20209;-66
2022/06/18 11:53:16;;;;;;;6.18;3.72;;;;;;;;;;5075145;28;20192;-66
2022/06/18 11:55:44;;;;;;;9.23;3.70;;;;;;;;;;5075113;28;20269;-66
2022/06/18 11:58:19;;;;;;;6.75;3.70;;;;;;;;;;5075270;28;20174;-66
2022/06/18 12:00:59;;;;;;;7.80;3.85;;;;;;;;;;5057083;28;20682;-65
2022/06/18 12:03:34;;;;;;;11.88;3.45;;;;;;;;;;5074968;28;20284;-66
2022/06/18 12:06:32;;;;;;;9.60;4.15;;;;;;;;;;5075093;28;20233;-65
2022/06/18 12:08:58;;;;;;;8.65;3.45;;;;;;;;;;5029894;28;20190;-66
2022/06/18 12:11:36;;;;;;;6.95;4.53;;;;;;;;;;5074874;28;20610;-66
2022/06/18 12:14:06;;;;;;;13.23;3.92;;;;;;;;;;5056494;28;20192;-67
2022/06/18 12:16:50;;;;;;;8.90;3.85;;;;;;;;;;5074528;28;20261;-67
2022/06/18 12:19:16;;;;;;;8.90;3.55;;;;;;;;;;5074422;28;20173;-66
2022/06/18 12:21:45;;;;;;;12.13;3.60;;;;;;;;;;5074282;28;20584;-67
2022/06/18 12:24:16;;;;;;;6.47;3.30;;;;;;;;;;5056361;28;20575;-67
2022/06/18 12:26:50;;;;;;;7.82;4.07;;;;;;;;;;5074861;28;20196;-67
2022/06/18 12:29:30;;;;;;;16.73;3.83;;;;;;;;;;5057689;28;20169;-67
2022/06/18 12:32:00;;;;;;;8.43;4.10;;;;;;;;;;5056197;28;20420;-67
2022/06/18 12:34:44;;;;;;;10.80;3.50;;;;;;;;;;5074329;28;20643;-66
2022/06/18 12:37:25;;;;;;;10.07;3.85;;;;;;;;;;5074164;28;20603;-67
2022/06/18 12:39:57;;;;;;;6.72;3.45;;;;;;;;;;5073892;28;20206;-67
2022/06/18 12:42:27;;;;;;;6.38;3.90;;;;;;;;;;5056061;28;20752;-66
2022/06/18 12:45:01;;;;;;;7.43;3.72;;;;;;;;;;5074123;28;20247;-67
2022/06/18 12:47:36;;;;;;;8.45;3.92;;;;;;;;;;5074004;28;20166;-66
2022/06/18 12:50:13;;;;;;;7.53;3.60;;;;;;;;;;5073905;28;20230;-67
2022/06/18 12:52:54;;;;;;;11.65;3.75;;;;;;;;;;5073781;28;20194;-67
2022/06/18 12:55:28;;;;;;;4.70;3.45;;;;;;;;;;5055852;28;20170;-66
2022/06/18 12:58:07;;;;;;;10.00;3.50;;;;;;;;;;5055996;28;20737;-67
2022/06/18 13:00:40;;;;;;;8.02;4.07;;;;;;;;;;5055699;28;20201;-67
2022/06/18 13:03:15;;;;;;;6.57;3.90;;;;;;;;;;5073547;28;20203;-68
2022/06/18 13:05:46;;;;;;;7.35;3.78;;;;;;;;;;5073879;28;20162;-67
2022/06/18 13:08:27;;;;;;;8.68;3.97;;;;;;;;;;5074025;28;20208;-66
2022/06/18 13:11:14;;;;;;;5.53;3.75;;;;;;;;;;5055591;28;20264;-66
2022/06/18 13:13:59;;;;;;;9.63;4.30;;;;;;;;;;5073856;28;20615;-66
2022/06/18 13:16:29;;;;;;;6.38;4.25;;;;;;;;;;5055577;28;20184;-67
2022/06/18 13:19:04;;;;;;;9.05;4.15;;;;;;;;;;5073678;28;20176;-66
2022/06/18 13:21:29;;;;;;;10.68;4.32;;;;;;;;;;5055369;28;20299;-67
2022/06/18 13:29:40;;;;;;;10.75;3.83;;;;;;;;;;5073477;28;20230;-66
2022/06/18 13:32:06;;;;;;;8.65;4.20;;;;;;;;;;5073430;28;20193;-67
2022/06/18 13:34:46;;;;;;;10.18;5.53;;;;;;;;;;5055584;28;20319;-66
2022/06/18 13:37:30;;;;;;;7.82;4.35;;;;;;;;;;5074229;28;20177;-67
2022/06/18 13:40:03;;;;;;;8.40;4.10;;;;;;;;;;5073444;28;20181;-67
2022/06/18 13:42:48;;;;;;;11.10;4.05;;;;;;;;;;5073461;28;20193;-67
2022/06/18 13:45:14;;;;;;;6.30;3.75;;;;;;;;;;5073192;28;20201;-67
2022/06/18 13:47:42;;;;;;;8.43;4.55;;;;;;;;;;5073327;28;20575;-67
2022/06/18 13:50:15;;;;;;;11.80;4.45;;;;;;;;;;5073443;28;20170;-67
2022/06/18 13:52:43;;;;;;;6.97;3.80;;;;;;;;;;5055034;28;20202;-67
2022/06/18 13:55:11;;;;;;;7.25;4.30;;;;;;;;;;5055100;28;20196;-67
2022/06/18 13:57:42;;;;;;;10.38;4.38;;;;;;;;;;5073162;28;20206;-67
2022/06/18 14:00:17;;;;;;;9.75;4.20;;;;;;;;;;5055052;28;20258;-66
2022/06/18 14:02:46;;;;;;;10.80;5.00;;;;;;;;;;5072982;28;20297;-67
2022/06/18 14:05:13;;;;;;;6.70;4.20;;;;;;;;;;5054974;28;20674;-67
2022/06/18 14:07:48;;;;;;;10.23;4.10;;;;;;;;;;5054893;28;20209;-67
2022/06/18 14:10:18;;;;;;;13.68;4.95;;;;;;;;;;5073281;28;20241;-66
2022/06/18 14:13:07;;;;;;;6.63;4.32;;;;;;;;;;5073391;28;20205;-67
2022/06/18 14:15:33;;;;;;;7.85;4.45;;;;;;;;;;5073018;28;20641;-66
2022/06/18 14:18:01;;;;;;;8.07;4.70;;;;;;;;;;5073096;28;20665;-66
2022/06/18 14:20:38;;;;;;;8.80;4.68;;;;;;;;;;5072880;28;20180;-66
2022/06/18 14:23:04;;;;;;;5.68;3.95;;;;;;;;;;5072846;28;20209;-66
2022/06/18 14:25:41;;;;;;;9.77;4.53;;;;;;;;;;5073010;28;20176;-66
2022/06/18 14:28:07;;;;;;;7.40;4.43;;;;;;;;;;5073314;28;20166;-67
2022/06/18 14:30:37;;;;;;;9.20;4.53;;;;;;;;;;5054913;28;20264;-66
2022/06/18 14:33:06;;;;;;;7.35;4.50;;;;;;;;;;5058342;28;20189;-66
2022/06/18 14:35:40;;;;;;;7.72;5.10;;;;;;;;;;5058762;28;20174;-67
2022/06/18 14:38:07;;;;;;;8.10;4.20;;;;;;;;;;5076838;28;20158;-67
2022/06/18 14:43:31;;;;;;;9.00;4.80;;;;;;;;;;5076909;28;20220;-68
2022/06/18 14:46:06;;;;;;;6.35;4.82;;;;;;;;;;5076701;28;20176;-67
2022/06/18 14:48:32;;;;;;;9.77;4.72;;;;;;;;;;5076704;28;20200;-66
2022/06/18 14:51:01;;;;;;;13.75;4.90;;;;;;;;;;5076405;28;20205;-68
2022/06/18 14:53:47;;;;;;;9.27;4.63;;;;;;;;;;5058327;28;20186;-66
2022/06/18 14:56:31;;;;;;;7.55;4.40;;;;;;;;;;5058368;28;20181;-66
2022/06/18 14:58:57;;;;;;;10.60;4.10;;;;;;;;;;5076090;28;20182;-67
2022/06/18 15:01:32;;;;;;;11.68;4.70;;;;;;;;;;5076230;28;20251;-66
2022/06/18 15:03:58;;;;;;;7.95;4.82;;;;;;;;;;5076559;28;20190;-66
2022/06/18 15:06:24;;;;;;;7.50;5.07;;;;;;;;;;5076538;28;20176;-66
2022/06/18 15:08:55;;;;;;;9.80;4.72;;;;;;;;;;5075985;28;20623;-66
2022/06/18 15:11:21;;;;;;;13.40;4.63;;;;;;;;;;5076339;28;20229;-66
2022/06/18 15:13:47;;;;;;;10.50;4.43;;;;;;;;;;5057942;28;20688;-66